createdAt,value
2018-09-23T00:00:01.786Z,11.72
2018-09-23T00:01:02.087Z,11.72
2018-09-23T00:02:02.488Z,11.71
2018-09-23T00:03:02.802Z,11.71
2018-09-23T00:04:03.141Z,11.71
2018-09-23T00:05:03.707Z,11.71
2018-09-23T00:06:04.087Z,11.71
2018-09-23T00:07:04.475Z,11.71
2018-09-23T00:08:04.862Z,11.71
2018-09-23T00:09:05.677Z,11.71
2018-09-23T00:10:06.048Z,11.72
2018-09-23T00:11:06.677Z,11.72
2018-09-23T00:12:07.300Z,11.73
2018-09-23T00:13:07.392Z,11.73
2018-09-23T00:14:08.251Z,11.73
2018-09-23T00:15:08.548Z,11.74
2018-09-23T00:16:08.849Z,11.74
2018-09-23T00:17:09.291Z,11.74
2018-09-23T00:18:09.578Z,11.74
2018-09-23T00:19:10.039Z,11.75
2018-09-23T00:19:18.137Z,11.79
2018-09-23T00:20:19.460Z,11.79
2018-09-23T00:21:19.733Z,11.79
2018-09-23T00:22:20.132Z,11.79
2018-09-23T00:23:19.316Z,11.79
2018-09-23T00:24:20.641Z,11.79
2018-09-23T00:25:21.034Z,11.79
2018-09-23T00:26:21.385Z,11.79
2018-09-23T00:27:21.621Z,11.79
2018-09-23T00:28:21.950Z,11.79
2018-09-23T00:29:22.211Z,11.79
2018-09-23T00:30:22.516Z,11.79
2018-09-23T00:31:22.923Z,11.78
2018-09-23T00:32:23.451Z,11.77
2018-09-23T00:33:23.833Z,11.76
2018-09-23T00:34:24.171Z,11.76
2018-09-23T00:35:24.705Z,11.75
2018-09-23T00:36:25.095Z,11.75
2018-09-23T00:37:25.500Z,11.75
2018-09-23T00:38:25.891Z,11.75
2018-09-23T00:39:26.208Z,11.75
2018-09-23T00:40:26.615Z,11.75
2018-09-23T00:41:26.921Z,11.75
2018-09-23T00:42:27.240Z,11.75
2018-09-23T00:43:27.553Z,11.75
2018-09-23T00:44:27.884Z,11.75
2018-09-23T00:45:28.177Z,11.75
2018-09-23T00:46:28.707Z,11.75
2018-09-23T00:47:29.103Z,11.76
2018-09-23T00:48:29.420Z,11.76
2018-09-23T00:49:29.704Z,11.76
2018-09-23T00:50:29.981Z,11.77
2018-09-23T00:51:30.884Z,11.77
2018-09-23T00:52:31.431Z,11.78
2018-09-23T00:53:31.769Z,11.78
2018-09-23T00:54:32.016Z,11.79
2018-09-23T00:55:32.217Z,11.79
2018-09-23T00:56:32.477Z,11.79
2018-09-23T00:57:32.948Z,11.78
2018-09-23T00:58:33.246Z,11.78
2018-09-23T00:59:33.544Z,11.77
2018-09-23T01:00:33.821Z,11.77
2018-09-23T01:01:34.249Z,11.77
2018-09-23T01:02:34.596Z,11.77
2018-09-23T01:02:42.995Z,11.72
2018-09-23T01:03:44.167Z,11.72
2018-09-23T01:04:44.750Z,11.71
2018-09-23T01:05:45.106Z,11.70
2018-09-23T01:06:45.430Z,11.70
2018-09-23T01:07:45.730Z,11.70
2018-09-23T01:08:46.167Z,11.69
2018-09-23T01:09:46.798Z,11.69
2018-09-23T01:10:47.117Z,11.69
2018-09-23T01:11:47.632Z,11.69
2018-09-23T01:12:48.001Z,11.69
2018-09-23T01:13:48.071Z,11.69
2018-09-23T01:14:48.765Z,11.69
2018-09-23T01:15:49.154Z,11.69
2018-09-23T01:16:49.477Z,11.69
2018-09-23T01:17:49.888Z,11.69
2018-09-23T01:18:50.186Z,11.69
2018-09-23T01:19:50.570Z,11.69
2018-09-23T01:20:51.109Z,11.69
2018-09-23T01:21:50.350Z,11.69
2018-09-23T01:22:51.714Z,11.70
2018-09-23T01:23:52.119Z,11.70
2018-09-23T01:24:52.464Z,11.70
2018-09-23T01:25:52.949Z,11.70
2018-09-23T01:26:53.256Z,11.70
2018-09-23T01:27:53.603Z,11.70
2018-09-23T01:28:54.107Z,11.70
2018-09-23T01:29:54.540Z,11.70
2018-09-23T01:30:54.839Z,11.70
2018-09-23T01:31:55.152Z,11.71
2018-09-23T01:32:55.657Z,11.71
2018-09-23T01:33:56.136Z,11.71
2018-09-23T01:34:55.630Z,11.71
2018-09-23T01:35:56.921Z,11.71
2018-09-23T01:36:57.349Z,11.72
2018-09-23T01:37:57.626Z,11.72
2018-09-23T01:38:57.858Z,11.73
2018-09-23T01:39:58.150Z,11.73
2018-09-23T01:40:58.345Z,11.73
2018-09-23T01:41:58.815Z,11.73
2018-09-23T01:42:59.088Z,11.73
2018-09-23T01:43:59.278Z,11.74
2018-09-23T01:44:59.482Z,11.74
2018-09-23T01:45:59.786Z,11.74
2018-09-23T01:47:00.232Z,11.74
2018-09-23T01:47:10.277Z,11.74
2018-09-23T01:48:11.298Z,11.74
2018-09-23T01:49:12.275Z,11.74
2018-09-23T01:50:12.528Z,11.74
2018-09-23T01:51:12.769Z,11.74
2018-09-23T01:52:13.101Z,11.74
2018-09-23T01:53:13.617Z,11.74
2018-09-23T01:54:13.816Z,11.74
2018-09-23T01:55:13.975Z,11.74
2018-09-23T01:56:14.221Z,11.74
2018-09-23T01:57:14.441Z,11.75
2018-09-23T01:58:15.247Z,11.75
2018-09-23T01:59:15.554Z,11.75
2018-09-23T02:00:15.967Z,11.76
2018-09-23T02:01:16.222Z,11.76
2018-09-23T02:02:16.626Z,11.76
2018-09-23T02:03:16.919Z,11.76
2018-09-23T02:04:17.217Z,11.77
2018-09-23T02:05:17.483Z,11.77
2018-09-23T02:06:17.738Z,11.77
2018-09-23T02:07:17.027Z,11.78
2018-09-23T02:08:18.376Z,11.78
2018-09-23T02:09:18.696Z,11.78
2018-09-23T02:10:19.007Z,11.79
2018-09-23T02:11:19.337Z,11.79
2018-09-23T02:12:19.654Z,11.80
2018-09-23T02:13:19.990Z,11.80
2018-09-23T02:14:20.369Z,11.80
2018-09-23T02:15:20.784Z,11.81
2018-09-23T02:16:21.094Z,11.81
2018-09-23T02:17:21.371Z,11.81
2018-09-23T02:18:21.765Z,11.82
2018-09-23T02:19:22.083Z,11.82
2018-09-23T02:20:22.313Z,11.83
2018-09-23T02:21:22.585Z,11.83
2018-09-23T02:22:22.900Z,11.84
2018-09-23T02:23:23.200Z,11.84
2018-09-23T02:24:23.499Z,11.84
2018-09-23T02:25:23.733Z,11.84
2018-09-23T02:26:24.107Z,11.85
2018-09-23T02:27:24.413Z,11.85
2018-09-23T02:28:25.024Z,11.85
2018-09-23T02:29:25.360Z,11.86
2018-09-23T02:30:25.624Z,11.86
2018-09-23T02:31:25.901Z,11.86
2018-09-23T02:32:26.320Z,11.86
2018-09-23T02:32:34.373Z,11.90
2018-09-23T02:33:35.700Z,11.89
2018-09-23T02:34:36.147Z,11.89
2018-09-23T02:35:36.152Z,11.89
2018-09-23T02:36:36.708Z,11.89
2018-09-23T02:37:37.253Z,11.89
2018-09-23T02:38:37.497Z,11.89
2018-09-23T02:39:37.874Z,11.88
2018-09-23T02:40:38.158Z,11.88
2018-09-23T02:41:38.445Z,11.88
2018-09-23T02:42:38.949Z,11.88
2018-09-23T02:43:39.415Z,11.88
2018-09-23T02:44:39.896Z,11.88
2018-09-23T02:45:40.191Z,11.88
2018-09-23T02:46:40.622Z,11.88
2018-09-23T02:47:40.949Z,11.89
2018-09-23T02:48:41.231Z,11.88
2018-09-23T02:49:41.840Z,11.88
2018-09-23T02:50:42.156Z,11.88
2018-09-23T02:51:42.587Z,11.87
2018-09-23T02:52:42.870Z,11.87
2018-09-23T02:53:43.192Z,11.86
2018-09-23T02:54:43.473Z,11.85
2018-09-23T02:55:43.767Z,11.85
2018-09-23T02:56:44.095Z,11.85
2018-09-23T02:57:44.325Z,11.85
2018-09-23T02:58:44.737Z,11.84
2018-09-23T02:59:43.922Z,11.84
2018-09-23T03:00:45.191Z,11.84
2018-09-23T03:01:45.502Z,11.84
2018-09-23T03:02:46.199Z,11.84
2018-09-23T03:03:46.505Z,11.84
2018-09-23T03:04:46.774Z,11.84
2018-09-23T03:05:47.155Z,11.84
2018-09-23T03:06:47.544Z,11.83
2018-09-23T03:07:47.904Z,11.83
2018-09-23T03:08:48.240Z,11.83
2018-09-23T03:09:48.625Z,11.84
2018-09-23T03:10:48.966Z,11.84
2018-09-23T03:11:49.265Z,11.84
2018-09-23T03:12:49.533Z,11.85
2018-09-23T03:13:49.869Z,11.85
2018-09-23T03:14:50.389Z,11.86
2018-09-23T03:15:50.670Z,11.86
2018-09-23T03:16:51.051Z,11.87
2018-09-23T03:17:51.673Z,11.87
2018-09-23T03:17:59.713Z,11.93
2018-09-23T03:19:01.255Z,11.93
2018-09-23T03:20:01.474Z,11.93
2018-09-23T03:21:01.690Z,11.93
2018-09-23T03:22:01.931Z,11.93
2018-09-23T03:23:02.269Z,11.93
2018-09-23T03:24:01.650Z,11.93
2018-09-23T03:25:02.888Z,11.94
2018-09-23T03:26:03.138Z,11.93
2018-09-23T03:27:03.345Z,11.93
2018-09-23T03:28:03.639Z,11.93
2018-09-23T03:29:03.937Z,11.93
2018-09-23T03:30:04.232Z,11.93
2018-09-23T03:31:04.510Z,11.93
2018-09-23T03:32:04.824Z,11.92
2018-09-23T03:33:05.160Z,11.92
2018-09-23T03:34:05.520Z,11.92
2018-09-23T03:35:05.801Z,11.92
2018-09-23T03:36:06.093Z,11.92
2018-09-23T03:37:06.677Z,11.91
2018-09-23T03:38:06.976Z,11.91
2018-09-23T03:39:07.192Z,11.91
2018-09-23T03:40:07.575Z,11.90
2018-09-23T03:41:07.771Z,11.90
2018-09-23T03:42:08.043Z,11.90
2018-09-23T03:43:08.262Z,11.90
2018-09-23T03:44:08.532Z,11.90
2018-09-23T03:45:08.815Z,11.89
2018-09-23T03:46:09.050Z,11.89
2018-09-23T03:47:09.265Z,11.89
2018-09-23T03:48:09.496Z,11.89
2018-09-23T03:49:10.100Z,11.89
2018-09-23T03:50:10.483Z,11.88
2018-09-23T03:51:10.704Z,11.88
2018-09-23T03:52:10.155Z,11.88
2018-09-23T03:53:11.681Z,11.87
2018-09-23T03:54:11.951Z,11.87
2018-09-23T03:55:12.247Z,11.87
2018-09-23T03:56:12.543Z,11.87
2018-09-23T03:57:12.820Z,11.87
2018-09-23T03:58:13.239Z,11.87
2018-09-23T03:59:13.479Z,11.87
2018-09-23T04:00:13.766Z,11.87
2018-09-23T04:01:14.279Z,11.88
2018-09-23T04:02:14.528Z,11.88
2018-09-23T04:03:14.753Z,11.88
2018-09-23T04:04:14.975Z,11.88
2018-09-23T04:04:23.329Z,11.91
2018-09-23T04:05:24.570Z,11.90
2018-09-23T04:06:24.996Z,11.91
2018-09-23T04:07:25.363Z,11.91
2018-09-23T04:08:25.643Z,11.91
2018-09-23T04:09:26.053Z,11.91
2018-09-23T04:10:26.427Z,11.90
2018-09-23T04:11:26.844Z,11.90
2018-09-23T04:12:27.138Z,11.90
2018-09-23T04:13:27.524Z,11.91
2018-09-23T04:14:28.007Z,11.91
2018-09-23T04:15:28.300Z,11.91
2018-09-23T04:16:28.710Z,11.91
2018-09-23T04:17:28.966Z,11.91
2018-09-23T04:18:29.182Z,11.91
2018-09-23T04:19:29.529Z,11.91
2018-09-23T04:20:29.845Z,11.91
2018-09-23T04:21:30.396Z,11.91
2018-09-23T04:22:30.646Z,11.91
2018-09-23T04:23:31.025Z,11.91
2018-09-23T04:24:31.455Z,11.91
2018-09-23T04:25:31.821Z,11.92
2018-09-23T04:26:32.299Z,11.92
2018-09-23T04:27:32.358Z,11.92
2018-09-23T04:28:32.666Z,11.92
2018-09-23T04:29:32.954Z,11.91
2018-09-23T04:30:33.280Z,11.92
2018-09-23T04:31:33.576Z,11.92
2018-09-23T04:32:33.886Z,11.92
2018-09-23T04:33:34.312Z,11.92
2018-09-23T04:34:34.628Z,11.92
2018-09-23T04:35:35.071Z,11.92
2018-09-23T04:36:35.527Z,11.92
2018-09-23T04:37:35.888Z,11.92
2018-09-23T04:38:36.229Z,11.92
2018-09-23T04:39:36.543Z,11.93
2018-09-23T04:40:36.969Z,11.93
2018-09-23T04:41:37.278Z,11.93
2018-09-23T04:42:37.534Z,11.94
2018-09-23T04:43:37.878Z,11.94
2018-09-23T04:44:38.228Z,11.94
2018-09-23T04:45:37.488Z,11.94
2018-09-23T04:46:39.116Z,11.95
2018-09-23T04:47:39.381Z,11.95
2018-09-23T04:48:39.547Z,11.95
2018-09-23T04:48:47.597Z,11.95
2018-09-23T04:49:48.846Z,11.94
2018-09-23T04:50:49.063Z,11.95
2018-09-23T04:51:49.363Z,11.95
2018-09-23T04:52:49.730Z,11.95
2018-09-23T04:53:49.994Z,11.95
2018-09-23T04:54:50.326Z,11.95
2018-09-23T04:55:50.735Z,11.96
2018-09-23T04:56:51.076Z,11.96
2018-09-23T04:57:51.344Z,11.96
2018-09-23T04:58:51.589Z,11.97
2018-09-23T04:59:51.849Z,11.97
2018-09-23T05:00:52.186Z,11.98
2018-09-23T05:01:52.398Z,11.98
2018-09-23T05:02:52.714Z,11.99
2018-09-23T05:03:52.952Z,11.99
2018-09-23T05:04:53.224Z,11.99
2018-09-23T05:05:53.450Z,12.00
2018-09-23T05:06:53.732Z,12.00
2018-09-23T05:07:53.988Z,12.00
2018-09-23T05:08:54.191Z,12.01
2018-09-23T05:09:54.470Z,12.01
2018-09-23T05:10:54.702Z,12.01
2018-09-23T05:11:55.320Z,12.02
2018-09-23T05:12:55.913Z,12.02
2018-09-23T05:13:56.175Z,12.03
2018-09-23T05:14:56.512Z,12.04
2018-09-23T05:15:56.755Z,12.04
2018-09-23T05:16:57.097Z,12.04
2018-09-23T05:17:57.337Z,12.04
2018-09-23T05:18:57.429Z,12.05
2018-09-23T05:19:57.771Z,12.05
2018-09-23T05:20:58.052Z,12.05
2018-09-23T05:21:58.828Z,12.06
2018-09-23T05:22:59.273Z,12.06
2018-09-23T05:23:59.629Z,12.06
2018-09-23T05:25:00.033Z,12.06
2018-09-23T05:26:00.328Z,12.06
2018-09-23T05:27:00.567Z,12.06
2018-09-23T05:28:01.337Z,12.06
2018-09-23T05:29:01.717Z,12.06
2018-09-23T05:30:02.123Z,12.06
2018-09-23T05:31:02.567Z,12.06
2018-09-23T05:32:01.710Z,12.06
2018-09-23T05:33:03.070Z,12.06
2018-09-23T05:33:11.577Z,12.06
2018-09-23T05:34:12.946Z,12.06
2018-09-23T05:35:13.415Z,12.06
2018-09-23T05:36:13.765Z,12.06
2018-09-23T05:37:14.047Z,12.06
2018-09-23T05:38:14.287Z,12.06
2018-09-23T05:39:14.554Z,12.06
2018-09-23T05:40:15.116Z,12.06
2018-09-23T05:41:15.391Z,12.06
2018-09-23T05:42:15.646Z,12.06
2018-09-23T05:43:15.974Z,12.06
2018-09-23T05:44:16.382Z,12.06
2018-09-23T05:45:16.616Z,12.06
2018-09-23T05:46:16.947Z,12.07
2018-09-23T05:47:17.332Z,12.07
2018-09-23T05:48:17.525Z,12.07
2018-09-23T05:49:17.776Z,12.07
2018-09-23T05:50:18.030Z,12.07
2018-09-23T05:51:18.260Z,12.08
2018-09-23T05:52:18.698Z,12.08
2018-09-23T05:53:18.942Z,12.08
2018-09-23T05:54:19.156Z,12.08
2018-09-23T05:55:19.429Z,12.09
2018-09-23T05:56:19.858Z,12.09
2018-09-23T05:57:20.354Z,12.09
2018-09-23T05:58:20.790Z,12.09
2018-09-23T05:59:21.058Z,12.10
2018-09-23T06:00:21.266Z,12.10
2018-09-23T06:01:21.677Z,12.10
2018-09-23T06:02:21.915Z,12.11
2018-09-23T06:03:22.200Z,12.11
2018-09-23T06:04:22.467Z,12.12
2018-09-23T06:05:22.942Z,12.13
2018-09-23T06:06:23.199Z,12.13
2018-09-23T06:07:23.446Z,12.14
2018-09-23T06:08:24.124Z,12.15
2018-09-23T06:09:23.512Z,12.16
2018-09-23T06:10:24.816Z,12.17
2018-09-23T06:11:25.118Z,12.18
2018-09-23T06:12:25.392Z,12.19
2018-09-23T06:13:25.627Z,12.20
2018-09-23T06:14:25.968Z,12.21
2018-09-23T06:15:26.653Z,12.21
2018-09-23T06:16:27.050Z,12.22
2018-09-23T06:16:35.342Z,12.33
2018-09-23T06:17:36.603Z,12.33
2018-09-23T06:18:36.869Z,12.33
2018-09-23T06:19:37.195Z,12.33
2018-09-23T06:20:37.428Z,12.33
2018-09-23T06:21:37.918Z,12.34
2018-09-23T06:22:38.249Z,12.34
2018-09-23T06:23:38.566Z,12.35
2018-09-23T06:24:38.869Z,12.35
2018-09-23T06:25:39.313Z,12.36
2018-09-23T06:26:39.684Z,12.36
2018-09-23T06:27:40.120Z,12.37
2018-09-23T06:28:40.342Z,12.37
2018-09-23T06:29:40.650Z,12.37
2018-09-23T06:30:41.026Z,12.37
2018-09-23T06:31:41.434Z,12.37
2018-09-23T06:32:41.707Z,12.38
2018-09-23T06:33:42.054Z,12.38
2018-09-23T06:34:42.327Z,12.38
2018-09-23T06:35:42.592Z,12.38
2018-09-23T06:36:43.114Z,12.39
2018-09-23T06:37:43.368Z,12.39
2018-09-23T06:38:43.698Z,12.39
2018-09-23T06:39:43.995Z,12.40
2018-09-23T06:40:44.271Z,12.40
2018-09-23T06:41:44.615Z,12.40
2018-09-23T06:42:44.962Z,12.41
2018-09-23T06:43:45.328Z,12.41
2018-09-23T06:44:45.582Z,12.42
2018-09-23T06:45:46.028Z,12.43
2018-09-23T06:46:45.269Z,12.43
2018-09-23T06:47:46.488Z,12.44
2018-09-23T06:48:46.745Z,12.44
2018-09-23T06:49:47.063Z,12.45
2018-09-23T06:50:47.279Z,12.46
2018-09-23T06:51:47.509Z,12.46
2018-09-23T06:52:47.734Z,12.47
2018-09-23T06:53:47.922Z,12.48
2018-09-23T06:54:48.128Z,12.49
2018-09-23T06:55:48.372Z,12.50
2018-09-23T06:56:48.649Z,12.51
2018-09-23T06:57:47.849Z,12.52
2018-09-23T06:58:49.100Z,12.53
2018-09-23T06:59:49.320Z,12.54
2018-09-23T07:00:49.370Z,12.54
2018-09-23T07:01:49.743Z,12.55
2018-09-23T07:02:50.002Z,12.56
2018-09-23T07:02:58.508Z,12.72
2018-09-23T07:03:59.849Z,12.72
2018-09-23T07:05:00.221Z,12.72
2018-09-23T07:05:59.453Z,12.72
2018-09-23T07:07:00.818Z,12.73
2018-09-23T07:08:01.248Z,12.73
2018-09-23T07:09:01.624Z,12.73
2018-09-23T07:10:01.979Z,12.74
2018-09-23T07:11:02.273Z,12.74
2018-09-23T07:12:02.528Z,12.75
2018-09-23T07:13:02.801Z,12.76
2018-09-23T07:14:03.064Z,12.76
2018-09-23T07:15:03.423Z,12.77
2018-09-23T07:16:03.669Z,12.77
2018-09-23T07:17:03.975Z,12.77
2018-09-23T07:18:04.567Z,12.78
2018-09-23T07:19:03.677Z,12.78
2018-09-23T07:20:04.988Z,12.79
2018-09-23T07:21:05.295Z,12.79
2018-09-23T07:22:05.693Z,12.79
2018-09-23T07:23:06.156Z,12.80
2018-09-23T07:24:06.567Z,12.80
2018-09-23T07:25:05.707Z,12.81
2018-09-23T07:26:07.168Z,12.82
2018-09-23T07:27:07.464Z,12.83
2018-09-23T07:28:07.769Z,12.83
2018-09-23T07:29:08.033Z,12.84
2018-09-23T07:30:08.311Z,12.85
2018-09-23T07:31:08.659Z,12.86
2018-09-23T07:32:08.877Z,12.86
2018-09-23T07:33:09.097Z,12.86
2018-09-23T07:34:09.405Z,12.87
2018-09-23T07:35:09.612Z,12.87
2018-09-23T07:36:09.881Z,12.88
2018-09-23T07:37:10.343Z,12.88
2018-09-23T07:38:09.515Z,12.89
2018-09-23T07:39:10.730Z,12.90
2018-09-23T07:40:11.155Z,12.91
2018-09-23T07:41:11.713Z,12.92
2018-09-23T07:42:11.985Z,12.93
2018-09-23T07:43:12.233Z,12.93
2018-09-23T07:44:12.520Z,12.94
2018-09-23T07:45:12.964Z,12.94
2018-09-23T07:46:13.287Z,12.95
2018-09-23T07:47:13.533Z,12.96
2018-09-23T07:48:13.828Z,12.96
2018-09-23T07:49:14.272Z,12.97
2018-09-23T07:49:22.313Z,13.10
2018-09-23T07:50:23.550Z,13.09
2018-09-23T07:51:23.685Z,13.09
2018-09-23T07:52:24.003Z,13.10
2018-09-23T07:53:24.359Z,13.10
2018-09-23T07:54:24.677Z,13.10
2018-09-23T07:55:25.481Z,13.10
2018-09-23T07:56:25.870Z,13.10
2018-09-23T07:57:25.147Z,13.10
2018-09-23T07:58:26.454Z,13.10
2018-09-23T07:59:26.790Z,13.11
2018-09-23T08:00:27.053Z,13.11
2018-09-23T08:01:27.308Z,13.12
2018-09-23T08:02:27.574Z,13.13
2018-09-23T08:03:28.029Z,13.13
2018-09-23T08:04:27.197Z,13.14
2018-09-23T08:05:28.453Z,13.16
2018-09-23T08:06:28.745Z,13.17
2018-09-23T08:07:29.300Z,13.19
2018-09-23T08:08:29.567Z,13.20
2018-09-23T08:09:29.880Z,13.22
2018-09-23T08:10:30.224Z,13.24
2018-09-23T08:11:30.506Z,13.26
2018-09-23T08:12:30.848Z,13.28
2018-09-23T08:13:30.231Z,13.30
2018-09-23T08:14:30.657Z,13.32
2018-09-23T08:15:30.736Z,13.34
2018-09-23T08:16:31.968Z,13.36
2018-09-23T08:17:32.329Z,13.38
2018-09-23T08:18:32.705Z,13.40
2018-09-23T08:19:33.508Z,13.42
2018-09-23T08:20:32.671Z,13.43
2018-09-23T08:21:32.963Z,13.45
2018-09-23T08:22:34.256Z,13.46
2018-09-23T08:23:34.548Z,13.48
2018-09-23T08:24:35.128Z,13.49
2018-09-23T08:25:35.561Z,13.50
2018-09-23T08:26:34.990Z,13.51
2018-09-23T08:27:35.161Z,13.53
2018-09-23T08:28:36.524Z,13.54
2018-09-23T08:29:36.893Z,13.56
2018-09-23T08:30:37.303Z,13.57
2018-09-23T08:31:37.607Z,13.59
2018-09-23T08:32:36.948Z,13.61
2018-09-23T08:33:38.220Z,13.62
2018-09-23T08:34:38.246Z,13.64
2018-09-23T08:35:38.511Z,13.65
2018-09-23T08:36:38.937Z,13.66
2018-09-23T08:37:39.285Z,13.67
2018-09-23T08:38:39.551Z,13.69
2018-09-23T08:39:39.813Z,13.70
2018-09-23T08:40:40.031Z,13.72
2018-09-23T08:40:48.366Z,13.93
2018-09-23T08:41:49.658Z,13.93
2018-09-23T08:42:49.794Z,13.93
2018-09-23T08:43:48.970Z,13.94
2018-09-23T08:44:50.171Z,13.95
2018-09-23T08:45:50.503Z,13.95
2018-09-23T08:46:50.750Z,13.96
2018-09-23T08:47:51.060Z,13.97
2018-09-23T08:48:50.225Z,13.97
2018-09-23T08:49:52.026Z,13.98
2018-09-23T08:50:52.667Z,13.98
2018-09-23T08:51:53.064Z,13.99
2018-09-23T08:52:52.392Z,14.00
2018-09-23T08:53:53.838Z,14.00
2018-09-23T08:54:56.824Z,14.01
2018-09-23T08:55:54.593Z,14.02
2018-09-23T08:56:55.966Z,14.03
2018-09-23T08:57:56.222Z,14.04
2018-09-23T08:58:56.550Z,14.05
2018-09-23T08:59:57.163Z,14.06
2018-09-23T09:00:57.727Z,14.07
2018-09-23T09:01:58.006Z,14.08
2018-09-23T09:02:58.437Z,14.10
2018-09-23T09:03:58.780Z,14.12
2018-09-23T09:04:59.149Z,14.13
2018-09-23T09:05:59.682Z,14.15
2018-09-23T09:07:00.026Z,14.17
2018-09-23T09:08:00.510Z,14.19
2018-09-23T09:09:00.909Z,14.22
2018-09-23T09:10:01.736Z,14.24
2018-09-23T09:11:02.108Z,14.26
2018-09-23T09:12:02.617Z,14.28
2018-09-23T09:13:03.142Z,14.30
2018-09-23T09:14:03.465Z,14.32
2018-09-23T09:15:03.746Z,14.34
2018-09-23T09:16:04.039Z,14.36
2018-09-23T09:17:04.526Z,14.38
2018-09-23T09:18:04.900Z,14.41
2018-09-23T09:19:05.315Z,14.43
2018-09-23T09:20:05.702Z,14.45
2018-09-23T09:21:06.213Z,14.47
2018-09-23T09:22:06.721Z,14.49
2018-09-23T09:23:07.043Z,14.51
2018-09-23T09:23:15.316Z,14.79
2018-09-23T09:24:16.611Z,14.79
2018-09-23T09:25:16.959Z,14.79
2018-09-23T09:26:17.509Z,14.79
2018-09-23T09:27:17.960Z,14.79
2018-09-23T09:28:18.301Z,14.80
2018-09-23T09:29:18.932Z,14.80
2018-09-23T09:30:18.286Z,14.80
2018-09-23T09:31:19.617Z,14.80
2018-09-23T09:32:20.039Z,14.80
2018-09-23T09:33:20.334Z,14.80
2018-09-23T09:34:20.781Z,14.80
2018-09-23T09:35:21.046Z,14.80
2018-09-23T09:36:20.317Z,14.80
2018-09-23T09:37:21.618Z,14.80
2018-09-23T09:38:21.969Z,14.80
2018-09-23T09:39:21.250Z,14.79
2018-09-23T09:40:22.782Z,14.79
2018-09-23T09:41:23.126Z,14.79
2018-09-23T09:42:23.477Z,14.78
2018-09-23T09:43:23.803Z,14.77
2018-09-23T09:44:24.267Z,14.77
2018-09-23T09:45:24.595Z,14.76
2018-09-23T09:46:25.047Z,14.75
2018-09-23T09:47:25.449Z,14.75
2018-09-23T09:48:25.790Z,14.74
2018-09-23T09:49:26.444Z,14.74
2018-09-23T09:50:26.853Z,14.73
2018-09-23T09:51:27.235Z,14.73
2018-09-23T09:52:27.566Z,14.72
2018-09-23T09:53:27.918Z,14.72
2018-09-23T09:54:27.204Z,14.71
2018-09-23T09:55:28.668Z,14.71
2018-09-23T09:56:27.787Z,14.71
2018-09-23T09:57:29.033Z,14.71
2018-09-23T09:58:29.320Z,14.71
2018-09-23T09:59:29.873Z,14.72
2018-09-23T10:00:30.207Z,14.72
2018-09-23T10:01:30.506Z,14.73
2018-09-23T10:02:30.830Z,14.73
2018-09-23T10:03:31.131Z,14.74
2018-09-23T10:04:31.416Z,14.74
2018-09-23T10:05:31.753Z,14.75
2018-09-23T10:06:32.033Z,14.75
2018-09-23T10:07:32.407Z,14.75
2018-09-23T10:08:32.788Z,14.76
2018-09-23T10:09:33.234Z,14.76
2018-09-23T10:10:33.684Z,14.77
2018-09-23T10:10:45.031Z,14.88
2018-09-23T10:11:46.053Z,14.88
2018-09-23T10:12:45.412Z,14.88
2018-09-23T10:13:46.743Z,14.88
2018-09-23T10:14:47.166Z,14.88
2018-09-23T10:15:47.611Z,14.88
2018-09-23T10:16:47.999Z,14.88
2018-09-23T10:17:48.386Z,14.89
2018-09-23T10:18:48.992Z,14.90
2018-09-23T10:19:49.397Z,14.91
2018-09-23T10:20:49.977Z,14.92
2018-09-23T10:21:50.290Z,14.94
2018-09-23T10:22:50.639Z,14.96
2018-09-23T10:23:50.940Z,14.98
2018-09-23T10:24:50.293Z,14.99
2018-09-23T10:25:51.736Z,15.01
2018-09-23T10:26:52.017Z,15.03
2018-09-23T10:27:52.262Z,15.05
2018-09-23T10:28:52.636Z,15.07
2018-09-23T10:29:52.954Z,15.09
2018-09-23T10:30:52.240Z,15.11
2018-09-23T10:31:53.690Z,15.14
2018-09-23T10:32:52.906Z,15.16
2018-09-23T10:33:54.212Z,15.18
2018-09-23T10:34:54.807Z,15.21
2018-09-23T10:35:55.170Z,15.23
2018-09-23T10:36:55.548Z,15.26
2018-09-23T10:37:55.811Z,15.28
2018-09-23T10:38:56.192Z,15.30
2018-09-23T10:39:56.460Z,15.33
2018-09-23T10:40:56.708Z,15.36
2018-09-23T10:41:56.998Z,15.38
2018-09-23T10:42:57.392Z,15.40
2018-09-23T10:43:57.681Z,15.42
2018-09-23T10:44:57.938Z,15.44
2018-09-23T10:45:58.229Z,15.46
2018-09-23T10:46:58.565Z,15.48
2018-09-23T10:47:59.007Z,15.50
2018-09-23T10:48:59.322Z,15.52
2018-09-23T10:49:59.641Z,15.53
2018-09-23T10:51:00.095Z,15.55
2018-09-23T10:52:00.383Z,15.57
2018-09-23T10:53:00.667Z,15.58
2018-09-23T10:54:00.988Z,15.59
2018-09-23T10:55:01.236Z,15.60
2018-09-23T10:56:01.666Z,15.61
2018-09-23T10:56:10.098Z,15.78
2018-09-23T10:57:10.357Z,15.78
2018-09-23T10:58:11.895Z,15.78
2018-09-23T10:59:11.211Z,15.78
2018-09-23T11:00:12.638Z,15.77
2018-09-23T11:01:12.967Z,15.77
2018-09-23T11:02:13.530Z,15.77
2018-09-23T11:03:13.783Z,15.78
2018-09-23T11:04:14.115Z,15.78
2018-09-23T11:05:13.436Z,15.78
2018-09-23T11:06:14.706Z,15.78
2018-09-23T11:07:15.033Z,15.78
2018-09-23T11:08:15.254Z,15.78
2018-09-23T11:09:15.686Z,15.78
2018-09-23T11:10:16.325Z,15.78
2018-09-23T11:11:16.613Z,15.78
2018-09-23T11:12:16.891Z,15.78
2018-09-23T11:13:17.221Z,15.77
2018-09-23T11:14:17.583Z,15.77
2018-09-23T11:15:17.912Z,15.77
2018-09-23T11:16:18.152Z,15.77
2018-09-23T11:17:18.265Z,15.77
2018-09-23T11:18:18.558Z,15.77
2018-09-23T11:19:18.808Z,15.77
2018-09-23T11:20:19.073Z,15.77
2018-09-23T11:21:19.407Z,15.77
2018-09-23T11:22:19.654Z,15.77
2018-09-23T11:23:20.025Z,15.77
2018-09-23T11:24:19.187Z,15.76
2018-09-23T11:25:20.446Z,15.76
2018-09-23T11:26:20.689Z,15.77
2018-09-23T11:27:21.013Z,15.77
2018-09-23T11:28:20.455Z,15.77
2018-09-23T11:29:21.878Z,15.78
2018-09-23T11:30:22.321Z,15.79
2018-09-23T11:31:22.604Z,15.81
2018-09-23T11:32:22.966Z,15.82
2018-09-23T11:33:23.185Z,15.83
2018-09-23T11:34:23.422Z,15.84
2018-09-23T11:35:23.746Z,15.85
2018-09-23T11:36:23.986Z,15.86
2018-09-23T11:37:24.225Z,15.87
2018-09-23T11:38:24.520Z,15.88
2018-09-23T11:39:24.739Z,15.90
2018-09-23T11:40:25.049Z,15.91
2018-09-23T11:41:25.274Z,15.93
2018-09-23T11:42:24.554Z,15.96
2018-09-23T11:42:33.024Z,16.40
2018-09-23T11:43:34.401Z,16.40
2018-09-23T11:44:34.771Z,16.40
2018-09-23T11:45:35.027Z,16.41
2018-09-23T11:46:35.309Z,16.41
2018-09-23T11:47:35.570Z,16.42
2018-09-23T11:48:35.869Z,16.42
2018-09-23T11:49:36.129Z,16.42
2018-09-23T11:50:37.113Z,16.42
2018-09-23T11:51:37.452Z,16.42
2018-09-23T11:52:36.964Z,16.42
2018-09-23T11:53:37.429Z,16.42
2018-09-23T11:54:38.713Z,16.43
2018-09-23T11:55:39.073Z,16.44
2018-09-23T11:56:39.840Z,16.46
2018-09-23T11:57:39.110Z,16.47
2018-09-23T11:58:40.419Z,16.48
2018-09-23T11:59:39.693Z,16.49
2018-09-23T12:00:41.137Z,16.50
2018-09-23T12:01:40.808Z,16.51
2018-09-23T12:02:42.252Z,16.52
2018-09-23T12:03:42.548Z,16.53
2018-09-23T12:04:42.864Z,16.55
2018-09-23T12:05:43.160Z,16.59
2018-09-23T12:06:43.405Z,16.63
2018-09-23T12:07:43.711Z,16.68
2018-09-23T12:08:43.917Z,16.73
2018-09-23T12:09:44.635Z,16.79
2018-09-23T12:10:45.067Z,16.86
2018-09-23T12:11:44.321Z,16.94
2018-09-23T12:12:45.754Z,17.03
2018-09-23T12:13:46.153Z,17.12
2018-09-23T12:14:46.558Z,17.22
2018-09-23T12:15:51.151Z,17.31
2018-09-23T12:16:53.876Z,17.41
2018-09-23T12:17:47.192Z,17.51
2018-09-23T12:18:56.658Z,17.61
2018-09-23T12:19:54.975Z,17.71
2018-09-23T12:20:54.632Z,17.80
2018-09-23T12:21:50.159Z,17.90
2018-09-23T12:23:01.043Z,18.00
2018-09-23T12:23:50.457Z,18.10
2018-09-23T12:24:51.796Z,18.20
2018-09-23T12:25:52.165Z,18.29
2018-09-23T12:26:51.372Z,18.38
2018-09-23T12:27:52.975Z,18.47
2018-09-23T12:28:53.964Z,18.55
2018-09-23T12:29:53.266Z,18.63
2018-09-23T12:30:54.338Z,18.70
2018-09-23T12:31:06.437Z,19.91
2018-09-23T12:32:07.823Z,19.91
2018-09-23T12:33:11.079Z,19.92
2018-09-23T12:34:09.520Z,19.92
2018-09-23T12:35:10.936Z,19.93
2018-09-23T12:36:08.590Z,19.94
2018-09-23T12:37:09.988Z,19.94
2018-09-23T12:38:10.619Z,19.95
2018-09-23T12:39:10.912Z,19.95
2018-09-23T12:40:11.500Z,19.96
2018-09-23T12:41:11.822Z,19.96
2018-09-23T12:42:12.232Z,19.96